Bookmark and Share
Track history (hours):
 

American Integrity

More information available from US FCC via Universal Licensing System and Coast Guard Vessel Documentation Center.

Last reported at 2014-Apr-22 03:29 UTC. Time now 2014-Apr-24 20:08 UTC.
Position N 46°33' W 084°39'.

; draft 8 m.

Type: Cargo ship. MMSI: 367120990.

NotesDate/timePositionNaut miles runAvg speedWind from/ knotsBaromVisibWave heightAir tempDewpointWater temp
2014-Apr-22 03:29N 46°33' W 084°39'0 0.1
2014-Apr-22 02:16N 46°33' W 084°39'0 0.0
2014-Apr-21 19:10N 46°33' W 084°39'0 0.0
2014-Apr-21 14:31N 46°33' W 084°39'0 0.0
2014-Apr-21 13:33N 46°33' W 084°39'0 0.0
2014-Apr-21 12:21N 46°33' W 084°39'0 0.0
2014-Apr-21 11:32N 46°33' W 084°39'0 0.0
2014-Apr-21 10:18N 46°33' W 084°39'0 0.0
2014-Apr-21 09:12N 46°33' W 084°39'0 0.0
2014-Apr-21 03:30N 46°33' W 084°39'0 0.0
2014-Apr-21 00:23N 46°33' W 084°39'0 0.0
2014-Apr-20 23:16N 46°33' W 084°39'0 0.0
2014-Apr-20 22:09N 46°33' W 084°39'0 0.0
2014-Apr-20 21:22N 46°33' W 084°39'0 0.0
2014-Apr-20 19:26N 46°33' W 084°39'33 1.1
2014-Apr-19 12:30N 46°10' W 084°05'0 0.0
2014-Apr-19 10:16N 46°10' W 084°05'4 0.1
2014-Apr-17 22:18N 46°08' W 084°01'3 4.4
2014-Apr-17 21:33N 46°05' W 084°01'1 0.8
2014-Apr-17 20:25N 46°04' W 083°60'0 0.0
2014-Apr-16 13:03N 46°04' W 083°60'0 0.0
2014-Apr-16 12:32N 46°04' W 083°60'0 0.0
2014-Apr-16 11:32N 46°04' W 083°60'  
2014-Apr-12 13:14N 46°04' W 083°60'0 0.0
2014-Apr-12 12:33N 46°04' W 083°60'0 0.0
2014-Apr-12 11:32N 46°04' W 083°60'  

Dump ship's entire track history

sailing weather and tide predictions

American Integrity — WDD2875 — position and weather